METAR and TAF’s


Available data for KLBB from the past 2 hours
LUBBOCK, TX
Metar
KLBB 261653Z COR 15013KT 9SM BKN013 OVC017 22/19 A3001 RMK AO2 SLP118 HZ ALQDS T02170189 $

16:53 UTC

Wind: 150° 13kt

Visibility: 9 SM

Sky: BKN 1300 ft

Temp: 22 deg C / 71.6 deg F

Dewpoint: 19 deg C / 66.2 deg F

Pressure: 30.01 inHg

TAF
KLBB 261422Z 2614/2712 15011KT P6SM BKN010 OVC023 TEMPO 2614/2617 5SM BR OVC007 FM261900 18020KT P6SM OVC060
Pirep (1)
LBB UA /OV 4E/TM 1610/FL065/TP B737/SK B040 T065 DURC
Available data for KCVN from the past 2 hours
CLOVIS MUNI, NM
Metar
KCVN 261656Z AUTO 17011KT 8SM BKN014 OVC019 20/18 A3002 RMK AO2 SLP132 T02000183

16:56 UTC

Wind: 170° 11kt

Visibility: 8 SM

Sky: BKN 1400 ft

Temp: 20 deg C / 68 deg F

Dewpoint: 18 deg C / 64.4 deg F

Pressure: 30.02 inHg